Barhom II — 5IM534 — position and weather

sailwx.info

Track history (hours):
 
Tides and Currents Weather Stations Pressure Air Temp Water Temp Dewpoint Dewpoint Depression Visibility Wind Speed Wind Dir Waves Ship Positions

Barhom II

Last reported at 2014-Sep-21 07:30 UTC. Time now 2014-Sep-21 08:08 UTC.
Position N 37°24' E 002°26'.

Length 83 m; draft 4.6 m.

Type: Cargo ship. MMSI: 677043400.

Date/timePositionNaut miles runAvg speedWind from/ knotsBaromVisibWave heightAir tempDewpointWater temp
2014-Sep-21 07:30N 37°24' E 002°26'9 9.9
2014-Sep-21 06:33N 37°24' E 002°14'1010.0
2014-Sep-21 05:33N 37°23' E 002°02'4510.4
2014-Sep-21 01:15N 37°25' E 001°05'1810.6
2014-Sep-20 23:32N 37°26' E 000°42'3510.5
2014-Sep-20 20:14N 37°27' W 000°01'710.3
2014-Sep-20 19:33N 37°27' W 000°10'1110.5
2014-Sep-20 18:31N 37°28' W 000°24'1110.5
2014-Sep-20 17:29N 37°30' W 000°37'1010.4
2014-Sep-20 16:28N 37°31' W 000°50'  
2014-Sep-17 06:10N 37°33' W 000°58'610.1
2014-Sep-17 05:33N 37°31' W 000°51'1210.6
2014-Sep-17 04:22N 37°32' W 000°35'1010.7
2014-Sep-17 03:26N 37°33' W 000°23'1110.6
2014-Sep-17 02:25N 37°33' W 000°09'14010.6
2014-Sep-16 13:13N 37°34' E 002°48'7610.7
2014-Sep-16 06:06N 37°37' E 004°24'2010.3
2014-Sep-16 04:11N 37°37' E 004°49'14510.5
2014-Sep-15 14:29N 37°40' E 007°52'1010.0
2014-Sep-15 13:27N 37°39' E 008°04'12 9.8
2014-Sep-15 12:15N 37°39' E 008°19'7 9.7
2014-Sep-15 11:33N 37°39' E 008°28'30 9.9
2014-Sep-15 08:33N 37°39' E 009°05'10 9.6
2014-Sep-15 07:32N 37°39' E 009°18'  
2014-Sep-12 13:22N 37°16' E 004°06'1011.0
2014-Sep-12 12:28N 37°15' E 003°53'19610.9
2014-Sep-11 18:25N 37°24' W 000°13'910.5
2014-Sep-11 17:32N 37°25' W 000°25'1110.5
2014-Sep-11 16:30N 37°27' W 000°38'1110.6
2014-Sep-11 15:30N 37°30' W 000°51'  
Track history (hours):
 
Tides and Currents Weather Stations Pressure Air Temp Water Temp Dewpoint Dewpoint Depression Visibility Wind Speed Wind Dir Waves Ship Positions

Barhom II

Last reported at 2014-Sep-21 07:30 UTC. Time now 2014-Sep-21 08:08 UTC.
Position N 37°24' E 002°26'.

Length 83 m; draft 4.6 m.

Type: Cargo ship. MMSI: 677043400.

Date/timePositionNaut miles runAvg speedWind from/ knotsBaromVisibWave heightAir tempDewpointWater temp
2014-Sep-21 07:30N 37°24' E 002°26'9 9.9
2014-Sep-21 06:33N 37°24' E 002°14'1010.0
2014-Sep-21 05:33N 37°23' E 002°02'4510.4
2014-Sep-21 01:15N 37°25' E 001°05'1810.6
2014-Sep-20 23:32N 37°26' E 000°42'3510.5
2014-Sep-20 20:14N 37°27' W 000°01'710.3
2014-Sep-20 19:33N 37°27' W 000°10'1110.5
2014-Sep-20 18:31N 37°28' W 000°24'1110.5
2014-Sep-20 17:29N 37°30' W 000°37'1010.4
2014-Sep-20 16:28N 37°31' W 000°50'  
2014-Sep-17 06:10N 37°33' W 000°58'610.1
2014-Sep-17 05:33N 37°31' W 000°51'1210.6
2014-Sep-17 04:22N 37°32' W 000°35'1010.7
2014-Sep-17 03:26N 37°33' W 000°23'1110.6
2014-Sep-17 02:25N 37°33' W 000°09'14010.6
2014-Sep-16 13:13N 37°34' E 002°48'7610.7
2014-Sep-16 06:06N 37°37' E 004°24'2010.3
2014-Sep-16 04:11N 37°37' E 004°49'14510.5
2014-Sep-15 14:29N 37°40' E 007°52'1010.0
2014-Sep-15 13:27N 37°39' E 008°04'12 9.8
2014-Sep-15 12:15N 37°39' E 008°19'7 9.7
2014-Sep-15 11:33N 37°39' E 008°28'30 9.9
2014-Sep-15 08:33N 37°39' E 009°05'10 9.6
2014-Sep-15 07:32N 37°39' E 009°18'  
2014-Sep-12 13:22N 37°16' E 004°06'1011.0
2014-Sep-12 12:28N 37°15' E 003°53'19610.9
2014-Sep-11 18:25N 37°24' W 000°13'910.5
2014-Sep-11 17:32N 37°25' W 000°25'1110.5
2014-Sep-11 16:30N 37°27' W 000°38'1110.6
2014-Sep-11 15:30N 37°30' W 000°51'  

Dump ship's entire track history